Austin (LCRA Redbud)'s Hourly Summary for Sunday, May 13, 2018
Hour Temp
(f)
RH
(%)
Solar Rad.
(MJ/m2)
Rainfall
(in)
Wind
(mph)
5/13/2018 12:00 AM 77 75 0 0 0.4
5/13/2018 1:00 AM 75 79 0 0 0.4
5/13/2018 2:00 AM 74 81 0 0 0.4
5/13/2018 3:00 AM 74 81 0 0 0.4
5/13/2018 4:00 AM 74 82 0 0 0.4
5/13/2018 5:00 AM 74 82 0 0 0.4
5/13/2018 6:00 AM 74 82 0 0 0.4
5/13/2018 7:00 AM 74 84 0.01 0 0.4
5/13/2018 8:00 AM 74 84 0.13 0 0.4
5/13/2018 9:00 AM 76 81 0.39 0 0.4
5/13/2018 10:00 AM 78 77 0.68 0 0.4
5/13/2018 11:00 AM 80 69 1.23 0 0.4
5/13/2018 12:00 PM 83 65 1.55 0 0.4
5/13/2018 1:00 PM 85 59 1.91 0 0.4
5/13/2018 2:00 PM 87 54 2.5 0 0.4
5/13/2018 3:00 PM 89 48 2.62 0 0.4
5/13/2018 4:00 PM 89 43 2.57 0 0.4
5/13/2018 5:00 PM 89 43 2.1 0 0.4
5/13/2018 6:00 PM 89 45 1.09 0 0.4
5/13/2018 7:00 PM 88 46 0.72 0 0.4
5/13/2018 8:00 PM 87 48 0.2 0 0.4
5/13/2018 9:00 PM 85 52 0.01 0 0.4
5/13/2018 10:00 PM 82 55 0 0 0.4
5/13/2018 11:00 PM 80 61 0 0 0.4
Data Summary 80 65 17.71 0.00 0.40